Terminal Aerodrome Forecast
Issued by NWS

Home | Current Version | Previous Version | Text Only | Print | Product List | Glossary On
Versions: 1 2 3 4 5 6 7 8 9 10 11 12
000
FTUS43 KGRB 252340
TAFRHI
TAF
KRHI 252340Z 2600/2624 VRB03KT P6SM VCTS BKN040CB OVC100
      TEMPO 2600/2603 3SM -TSRA BKN040CB
     FM260300 VRB03KT 5SM -SHRA BR OVC006
     FM260800 12003KT 3SM BR VCSH OVC002
     FM261400 23006KT 4SM -SHRA BR OVC007
     FM262000 26010KT P6SM VCSH OVC012=

USA.gov is the U.S. government's official web portal to all federal, state and local government web resources and services.